Terminal Aerodrome Forecast
Issued by NWS

Home | Current Version | Previous Version | Text Only | Print | Product List | Glossary On
Versions: 1 2 3 4 5 6 7 8 9 10 11 12 13 14 15 16 17
724
FTUS41 KCAR 250006 AAA
TAFHUL
TAF AMD
KHUL 250006Z 2500/2524 26005KT P6SM SCT060
      TEMPO 2501/2502 -SHRA BKN060
     FM251500 27009KT P6SM FEW050 SCT150
     FM251900 27009KT P6SM VCSH BKN060=

USA.gov is the U.S. government's official web portal to all federal, state and local government web resources and services.